sensor_id;sensor_type;location;lat;lon;timestamp;pressure;altitude;pressure_sealevel;temperature;humidity
46174;BME280;31897;52.420;13.498;2023-07-08T00:01:40;101700;;;17.8924;26.43732
46174;BME280;31897;52.420;13.498;2023-07-08T00:04:41;101700;;;17.83425;26.52932
46174;BME280;31897;52.420;13.498;2023-07-08T00:07:42;101700;;;17.76059;26.63983
46174;BME280;31897;52.420;13.498;2023-07-08T00:10:43;101700;;;17.70341;26.73774
46174;BME280;31897;52.420;13.498;2023-07-08T00:13:44;101700;;;17.64008;26.85381
46174;BME280;31897;52.420;13.498;2023-07-08T00:16:45;101700;;;17.6333;26.90799
46174;BME280;31897;52.420;13.498;2023-07-08T00:19:46;101700;;;17.57418;27.05383
46174;BME280;31897;52.420;13.498;2023-07-08T00:22:46;101700;;;17.50957;27.21179
46174;BME280;31897;52.420;13.498;2023-07-08T00:25:47;101700;;;17.46401;27.31515
46174;BME280;31897;52.420;13.498;2023-07-08T00:28:49;101700;;;17.42783;27.47209
46174;BME280;31897;52.420;13.498;2023-07-08T00:31:49;101700;;;17.38389;27.64122
46174;BME280;31897;52.420;13.498;2023-07-08T00:34:50;101700;;;17.33834;27.75647
46174;BME280;31897;52.420;13.498;2023-07-08T00:37:51;101700;;;17.28633;27.85394
46174;BME280;31897;52.420;13.498;2023-07-08T00:40:57;101700;;;17.23948;27.94524
46174;BME280;31897;52.420;13.498;2023-07-08T00:43:59;101700;;;17.21687;28.02377
46174;BME280;31897;52.420;13.498;2023-07-08T00:47:02;101700;;;17.17746;28.08487
46174;BME280;31897;52.420;13.498;2023-07-08T00:50:03;101700;;;17.14515;28.15172
46174;BME280;31897;52.420;13.498;2023-07-08T00:56:39;101700;;;17.05308;28.25033
46174;BME280;31897;52.420;13.498;2023-07-08T00:59:42;101700;;;17.01431;28.40708
46174;BME280;31897;52.420;13.498;2023-07-08T01:02:48;101700;;;16.96553;28.46242
46174;BME280;31897;52.420;13.498;2023-07-08T01:05:51;101700;;;16.92902;28.52933
46174;BME280;31897;52.420;13.498;2023-07-08T01:08:52;101700;;;16.90447;28.5839
46174;BME280;31897;52.420;13.498;2023-07-08T01:11:52;101700;;;16.86441;28.65687
46174;BME280;31897;52.420;13.498;2023-07-08T01:14:54;101700;;;16.85051;28.74699
46174;BME280;31897;52.420;13.498;2023-07-08T01:17:55;101700;;;16.84115;28.7951
46174;BME280;31897;52.420;13.498;2023-07-08T01:21:00;101700;;;16.79915;28.85016
46174;BME280;31897;52.420;13.498;2023-07-08T01:24:01;101700;;;16.79915;28.86212
46174;BME280;31897;52.420;13.498;2023-07-08T01:27:04;101700;;;16.79656;28.82035
46174;BME280;31897;52.420;13.498;2023-07-08T01:30:06;101700;;;16.77363;28.81507
46174;BME280;31897;52.420;13.498;2023-07-08T01:33:11;101700;;;16.74003;28.79811
46174;BME280;31897;52.420;13.498;2023-07-08T01:36:13;101700;;;16.69932;28.88301
46174;BME280;31897;52.420;13.498;2023-07-08T01:39:14;101700;;;16.67283;28.85988
46174;BME280;31897;52.420;13.498;2023-07-08T01:42:17;101700;;;16.63406;28.83713
46174;BME280;31897;52.420;13.498;2023-07-08T01:45:20;101700;;;16.57979;28.84471
46174;BME280;31897;52.420;13.498;2023-07-08T01:48:22;101700;;;16.55459;28.82155
46174;BME280;31897;52.420;13.498;2023-07-08T01:51:23;101700;;;16.49062;28.82345
46174;BME280;31897;52.420;13.498;2023-07-08T01:54:24;101700;;;16.4357;28.80118
46174;BME280;31897;52.420;13.498;2023-07-08T01:57:25;101700;;;16.40792;28.86174
46174;BME280;31897;52.420;13.498;2023-07-08T02:00:26;101700;;;16.38854;28.85037
46174;BME280;31897;52.420;13.498;2023-07-08T02:03:27;101700;;;16.34654;28.85161
46174;BME280;31897;52.420;13.498;2023-07-08T02:06:28;101700;;;16.30745;28.85873
46174;BME280;31897;52.420;13.498;2023-07-08T02:09:29;101700;;;16.26997;28.81208
46174;BME280;31897;52.420;13.498;2023-07-08T02:12:29;101700;;;16.23185;28.92664
46174;BME280;31897;52.420;13.498;2023-07-08T02:15:30;101700;;;16.17822;29.05359
46174;BME280;31897;52.420;13.498;2023-07-08T02:18:31;101700;;;16.18921;29.05924
46174;BME280;31897;52.420;13.498;2023-07-08T02:21:32;101700;;;16.15399;29.01847
46174;BME280;31897;52.420;13.498;2023-07-08T02:24:32;101700;;;16.11619;29.07329
46174;BME280;31897;52.420;13.498;2023-07-08T02:27:33;101700;;;16.09972;28.9902
46174;BME280;31897;52.420;13.498;2023-07-08T02:30:34;101700;;;16.05934;29.03316
46174;BME280;31897;52.420;13.498;2023-07-08T02:33:35;101700;;;16.04835;29.05735
46174;BME280;31897;52.420;13.498;2023-07-08T02:36:36;101700;;;16.00474;29.172
46174;BME280;31897;52.420;13.498;2023-07-08T02:39:37;101700;;;15.98439;29.23823
46174;BME280;31897;52.420;13.498;2023-07-08T02:42:38;101700;;;15.97082;29.27441
46174;BME280;31897;52.420;13.498;2023-07-08T02:45:39;101700;;;15.9327;29.32919
46174;BME280;31897;52.420;13.498;2023-07-08T02:48:40;101700;;;15.93302;29.32322
46174;BME280;31897;52.420;13.498;2023-07-08T02:51:40;101700;;;15.92527;29.29957
46174;BME280;31897;52.420;13.498;2023-07-08T02:54:41;101700;;;15.90847;29.31795
46174;BME280;31897;52.420;13.498;2023-07-08T02:57:42;101700;;;15.88165;29.37836
46174;BME280;31897;52.420;13.498;2023-07-08T03:00:43;101700;;;15.85419;29.39703
46174;BME280;31897;52.420;13.498;2023-07-08T03:03:43;101700;;;15.80896;29.40427
46174;BME280;31897;52.420;13.498;2023-07-08T03:06:44;101700;;;15.73918;29.47183
46174;BME280;31897;52.420;13.498;2023-07-08T03:09:45;101700;;;15.71075;29.49051
46174;BME280;31897;52.420;13.498;2023-07-08T03:12:46;101700;;;15.66876;29.55727
46174;BME280;31897;52.420;13.498;2023-07-08T03:15:47;101700;;;15.65422;29.65903
46174;BME280;31897;52.420;13.498;2023-07-08T03:18:47;101700;;;15.66391;29.74223
46174;BME280;31897;52.420;13.498;2023-07-08T03:21:48;101700;;;15.63936;29.83829
46174;BME280;31897;52.420;13.498;2023-07-08T03:24:49;101700;;;15.62547;29.84463
46174;BME280;31897;52.420;13.498;2023-07-08T03:27:50;101700;;;15.6274;29.85054
46174;BME280;31897;52.420;13.498;2023-07-08T03:30:51;101700;;;15.57636;29.87576
46174;BME280;31897;52.420;13.498;2023-07-08T03:33:52;101700;;;15.55633;29.84054
46174;BME280;31897;52.420;13.498;2023-07-08T03:36:53;101700;;;15.57701;29.92939
46174;BME280;31897;52.420;13.498;2023-07-08T03:39:54;101700;;;15.56538;30.01911
46174;BME280;31897;52.420;13.498;2023-07-08T03:42:54;101700;;;15.55407;30.10285
46174;BME280;31897;52.420;13.498;2023-07-08T03:45:55;101700;;;15.55956;30.15634
46174;BME280;31897;52.420;13.498;2023-07-08T03:48:56;101700;;;15.57248;30.17388
46174;BME280;31897;52.420;13.498;2023-07-08T03:51:57;101700;;;15.56182;30.29932
46174;BME280;31897;52.420;13.498;2023-07-08T03:54:58;101700;;;15.54567;30.61559
46174;BME280;31897;52.420;13.498;2023-07-08T03:57:58;101700;;;15.58864;30.78732
46174;BME280;31897;52.420;13.498;2023-07-08T04:00:59;101700;;;15.6119;30.87614
46174;BME280;31897;52.420;13.498;2023-07-08T04:04:00;101700;;;15.6371;30.72652
46174;BME280;31897;52.420;13.498;2023-07-08T04:07:01;101700;;;15.64388;30.72635
46174;BME280;31897;52.420;13.498;2023-07-08T04:10:01;101700;;;15.67942;30.70161
46174;BME280;31897;52.420;13.498;2023-07-08T04:13:02;101700;;;15.68943;30.73116
46174;BME280;31897;52.420;13.498;2023-07-08T04:16:04;101700;;;15.69815;30.71306
46174;BME280;31897;52.420;13.498;2023-07-08T04:19:05;101700;;;15.77214;30.7589
46174;BME280;31897;52.420;13.498;2023-07-08T04:22:06;101700;;;15.81543;30.71607
46174;BME280;31897;52.420;13.498;2023-07-08T04:25:07;101700;;;15.88294;30.71437
46174;BME280;31897;52.420;13.498;2023-07-08T04:28:07;101700;;;16.00409;30.6457
46174;BME280;31897;52.420;13.498;2023-07-08T04:31:08;101700;;;16.01055;30.69923
46174;BME280;31897;52.420;13.498;2023-07-08T04:34:09;101700;;;16.0742;30.76921
46174;BME280;31897;52.420;13.498;2023-07-08T04:37:10;101700;;;16.13202;30.84532
46174;BME280;31897;52.420;13.498;2023-07-08T04:40:13;101700;;;16.17079;30.90998
46174;BME280;31897;52.420;13.498;2023-07-08T04:43:16;101700;;;16.20504;30.98074
46174;BME280;31897;52.420;13.498;2023-07-08T04:46:19;101700;;;16.18791;31.12436
46174;BME280;31897;52.420;13.498;2023-07-08T04:49:20;101700;;;16.24606;31.20649
46174;BME280;31897;52.420;13.498;2023-07-08T04:52:21;101700;;;16.29711;31.29477
46174;BME280;31897;52.420;13.498;2023-07-08T04:55:22;101700;;;16.40566;31.26827
46174;BME280;31897;52.420;13.498;2023-07-08T04:58:23;101700;;;16.49353;31.31392
46174;BME280;31897;52.420;13.498;2023-07-08T05:01:23;101700;;;16.59045;31.34741
46174;BME280;31897;52.420;13.498;2023-07-08T05:04:24;101700;;;16.68091;31.43483
46174;BME280;31897;52.420;13.498;2023-07-08T05:07:25;101700;;;16.79172;31.54569
46174;BME280;31897;52.420;13.498;2023-07-08T05:10:26;101700;;;16.8489;31.57421
46174;BME280;31897;52.420;13.498;2023-07-08T05:13:26;101700;;;16.93968;31.67365
46174;BME280;31897;52.420;13.498;2023-07-08T05:16:27;101700;;;17.04855;31.76075
46174;BME280;31897;52.420;13.498;2023-07-08T05:19:28;101700;;;17.13029;31.86645
46174;BME280;31897;52.420;13.498;2023-07-08T05:22:29;101700;;;17.16615;31.84769
46174;BME280;31897;52.420;13.498;2023-07-08T05:25:31;101700;;;17.27954;31.82712
46174;BME280;31897;52.420;13.498;2023-07-08T05:28:32;101700;;;17.56707;31.47335
46174;BME280;31897;52.420;13.498;2023-07-08T05:31:33;101700;;;17.89563;30.92039
46174;BME280;31897;52.420;13.498;2023-07-08T05:34:39;101700;;;18.03907;30.50329
46174;BME280;31897;52.420;13.498;2023-07-08T05:37:40;101700;;;18.17993;30.34971
46174;BME280;31897;52.420;13.498;2023-07-08T05:40:41;101700;;;18.39574;30.122
46174;BME280;31897;52.420;13.498;2023-07-08T05:43:42;101700;;;18.58926;29.90668
46174;BME280;31897;52.420;13.498;2023-07-08T05:46:43;101700;;;19.41341;29.03576
46174;BME280;31897;52.420;13.498;2023-07-08T05:49:44;101700;;;20.96126;27.14779
46174;BME280;31897;52.420;13.498;2023-07-08T05:52:44;101700;;;24.94167;22.99002
46174;BME280;31897;52.420;13.498;2023-07-08T05:55:45;101700;;;24.04542;24.0648
46174;BME280;31897;52.420;13.498;2023-07-08T05:58:46;101700;;;22.90654;25.03537
46174;BME280;31897;52.420;13.498;2023-07-08T06:01:47;101700;;;21.89884;25.89271
46174;BME280;31897;52.420;13.498;2023-07-08T06:04:48;101700;;;21.3496;26.12504
46174;BME280;31897;52.420;13.498;2023-07-08T06:07:48;101700;;;20.99551;26.34353
46174;BME280;31897;52.420;13.498;2023-07-08T06:10:49;101700;;;21.03493;26.26357
46174;BME280;31897;52.420;13.498;2023-07-08T06:13:50;101700;;;20.77517;26.56285
46174;BME280;31897;52.420;13.498;2023-07-08T06:16:51;101700;;;20.70959;26.42038
46174;BME280;31897;52.420;13.498;2023-07-08T06:19:52;101700;;;20.71734;26.24508
46174;BME280;31897;52.420;13.498;2023-07-08T06:22:52;101700;;;20.74965;26.08092
46174;BME280;31897;52.420;13.498;2023-07-08T06:25:53;101700;;;20.72219;25.70168
46174;BME280;31897;52.420;13.498;2023-07-08T06:28:54;101700;;;20.73899;25.93646
46174;BME280;31897;52.420;13.498;2023-07-08T06:31:55;101700;;;20.83688;25.89052
46174;BME280;31897;52.420;13.498;2023-07-08T06:34:56;101700;;;21.36931;25.41102
46174;BME280;31897;52.420;13.498;2023-07-08T06:37:57;101700;;;21.57318;25.5301
46174;BME280;31897;52.420;13.498;2023-07-08T06:40:57;101700;;;21.65976;25.44811
46174;BME280;31897;52.420;13.498;2023-07-08T06:43:58;101700;;;21.6281;25.29812
46174;BME280;31897;52.420;13.498;2023-07-08T06:46:59;101700;;;21.70015;25.06539
46174;BME280;31897;52.420;13.498;2023-07-08T06:50:00;101700;;;23.3902;23.15707
46174;BME280;31897;52.420;13.498;2023-07-08T06:53:01;101700;;;23.41087;23.05892
46174;BME280;31897;52.420;13.498;2023-07-08T06:56:02;101700;;;23.37307;22.96947
46174;BME280;31897;52.420;13.498;2023-07-08T06:59:02;101700;;;23.10879;23.36388
46174;BME280;31897;52.420;13.498;2023-07-08T07:02:03;101700;;;22.89232;23.39159
46174;BME280;31897;52.420;13.498;2023-07-08T07:05:04;101700;;;22.79701;23.37149
46174;BME280;31897;52.420;13.498;2023-07-08T07:08:05;101700;;;22.87714;23.05844
46174;BME280;31897;52.420;13.498;2023-07-08T07:11:06;101700;;;22.83546;22.62937
46174;BME280;31897;52.420;13.498;2023-07-08T07:14:07;101700;;;22.7899;22.44329
46174;BME280;31897;52.420;13.498;2023-07-08T07:17:08;101700;;;22.88327;22.11725
46174;BME280;31897;52.420;13.498;2023-07-08T07:20:09;101700;;;22.98828;21.77834
46174;BME280;31897;52.420;13.498;2023-07-08T07:23:09;101700;;;23.0306;21.52729
46174;BME280;31897;52.420;13.498;2023-07-08T07:26:10;101700;;;23.15919;21.41783
46174;BME280;31897;52.420;13.498;2023-07-08T07:29:11;101700;;;23.29069;21.47227
46174;BME280;31897;52.420;13.498;2023-07-08T07:32:12;101700;;;23.37275;21.45008
46174;BME280;31897;52.420;13.498;2023-07-08T07:35:13;101700;;;23.49423;21.34692
46174;BME280;31897;52.420;13.498;2023-07-08T07:38:15;101700;;;23.5414;21.39329
46174;BME280;31897;52.420;13.498;2023-07-08T07:41:16;101700;;;23.63186;21.3585
46174;BME280;31897;52.420;13.498;2023-07-08T07:44:17;101700;;;23.73622;21.39602
46174;BME280;31897;52.420;13.498;2023-07-08T07:47:17;101700;;;23.81247;21.62354
46174;BME280;31897;52.420;13.498;2023-07-08T07:50:18;101700;;;23.88549;21.4253
46174;BME280;31897;52.420;13.498;2023-07-08T07:53:19;101700;;;23.95818;21.47047
46174;BME280;31897;52.420;13.498;2023-07-08T07:56:20;101700;;;24.05543;21.16744
46174;BME280;31897;52.420;13.498;2023-07-08T07:59:21;101700;;;24.11036;21.01251
46174;BME280;31897;52.420;13.498;2023-07-08T08:02:22;101700;;;24.17304;21.07031
46174;BME280;31897;52.420;13.498;2023-07-08T08:05:22;101700;;;24.29678;20.94846
46174;BME280;31897;52.420;13.498;2023-07-08T08:08:23;101700;;;24.34169;20.90968
46174;BME280;31897;52.420;13.498;2023-07-08T08:11:24;101700;;;24.65412;20.61975
46174;BME280;31897;52.420;13.498;2023-07-08T08:14:25;101700;;;24.83473;20.17751
46174;BME280;31897;52.420;13.498;2023-07-08T08:17:25;101700;;;27.56037;17.67208
46174;BME280;31897;52.420;13.498;2023-07-08T08:20:27;101700;;;27.36489;17.66498
46174;BME280;31897;52.420;13.498;2023-07-08T08:23:28;101700;;;27.61335;17.43561
46174;BME280;31897;52.420;13.498;2023-07-08T08:26:29;101700;;;27.28896;17.62636
46174;BME280;31897;52.420;13.498;2023-07-08T08:29:29;101700;;;26.78396;17.93751
46174;BME280;31897;52.420;13.498;2023-07-08T08:32:30;101700;;;26.54842;17.95091
46174;BME280;31897;52.420;13.498;2023-07-08T08:35:31;101700;;;26.39301;18.14962
46174;BME280;31897;52.420;13.498;2023-07-08T08:38:32;101700;;;26.3439;18.23813
46174;BME280;31897;52.420;13.498;2023-07-08T08:41:33;101700;;;26.34293;17.99933
46174;BME280;31897;52.420;13.498;2023-07-08T08:44:34;101700;;;26.425;17.87216
46174;BME280;31897;52.420;13.498;2023-07-08T08:47:37;101700;;;26.52096;17.87894
46174;BME280;31897;52.420;13.498;2023-07-08T08:50:41;101700;;;26.68186;17.92493
46174;BME280;31897;52.420;13.498;2023-07-08T08:53:43;101700;;;26.67895;18.09058
46174;BME280;31897;52.420;13.498;2023-07-08T08:56:52;101700;;;26.61498;17.77553
46174;BME280;31897;52.420;13.498;2023-07-08T08:59:57;101700;;;26.68283;17.72873
46174;BME280;31897;52.420;13.498;2023-07-08T09:03:01;101700;;;26.72225;17.5303
46174;BME280;31897;52.420;13.498;2023-07-08T09:06:07;101700;;;26.77814;17.26342
46174;BME280;31897;52.420;13.498;2023-07-08T09:09:11;101700;;;26.83791;17.16794
46174;BME280;31897;52.420;13.498;2023-07-08T09:12:14;101700;;;26.90673;17.01669
46174;BME280;31897;52.420;13.498;2023-07-08T09:15:18;101700;;;26.98169;16.72392
46174;BME280;31897;52.420;13.498;2023-07-08T09:18:20;101700;;;27.02434;16.51888
46174;BME280;31897;52.420;13.498;2023-07-08T09:21:25;101700;;;27.01271;16.14526
46174;BME280;31897;52.420;13.498;2023-07-08T09:24:29;101700;;;27.05988;16.13011
46174;BME280;31897;52.420;13.498;2023-07-08T09:27:32;101700;;;27.52515;15.64703
46174;BME280;31897;52.420;13.498;2023-07-08T09:30:33;101700;;;28.35326;15.02288
46174;BME280;31897;52.420;13.498;2023-07-08T09:33:39;101700;;;32.21928;12.45046
46174;BME280;31897;52.420;13.498;2023-07-08T09:36:41;101700;;;33.3712;12.03896
46174;BME280;31897;52.420;13.498;2023-07-08T09:39:42;101700;;;31.69324;13.05831
46174;BME280;31897;52.420;13.498;2023-07-08T09:42:44;101700;;;30.56849;13.5874
46174;BME280;31897;52.420;13.498;2023-07-08T09:45:47;101700;;;29.86152;13.82657
46174;BME280;31897;52.420;13.498;2023-07-08T09:48:48;101700;;;29.3355;14.10851
46174;BME280;31897;52.420;13.498;2023-07-08T09:51:49;101700;;;29.09705;14.16125
46174;BME280;31897;52.420;13.498;2023-07-08T09:54:50;101700;;;30.61986;13.13208
46174;BME280;31897;52.420;13.498;2023-07-08T09:57:52;101600;;;30.81437;13.08778
46174;BME280;31897;52.420;13.498;2023-07-08T10:00:54;101600;;;30.70064;13.03987
46174;BME280;31897;52.420;13.498;2023-07-08T10:03:57;101600;;;30.25054;13.41094
46174;BME280;31897;52.420;13.498;2023-07-08T10:06:58;101600;;;29.86475;13.38145
46174;BME280;31897;52.420;13.498;2023-07-08T10:10:01;101600;;;29.53486;13.5211
46174;BME280;31897;52.420;13.498;2023-07-08T10:13:11;101600;;;29.97105;13.17644
46174;BME280;31897;52.420;13.498;2023-07-08T10:16:17;101600;;;31.60762;12.02808
46174;BME280;31897;52.420;13.498;2023-07-08T10:19:21;101600;;;32.03672;12.02235
46174;BME280;31897;52.420;13.498;2023-07-08T10:22:28;101600;;;31.22699;12.31553
46174;BME280;31897;52.420;13.498;2023-07-08T10:25:34;101600;;;32.07678;11.63435
46174;BME280;31897;52.420;13.498;2023-07-08T10:28:40;101600;;;32.78991;11.11613
46174;BME280;31897;52.420;13.498;2023-07-08T10:31:46;101600;;;33.27976;10.71878
46174;BME280;31897;52.420;13.498;2023-07-08T10:34:52;101600;;;33.56378;10.56671
46174;BME280;31897;52.420;13.498;2023-07-08T10:38:02;101600;;;33.06908;10.74691
46174;BME280;31897;52.420;13.498;2023-07-08T10:41:06;101600;;;32.3007;11.12715
46174;BME280;31897;52.420;13.498;2023-07-08T10:44:12;101600;;;31.73363;11.33006
46174;BME280;31897;52.420;13.498;2023-07-08T10:47:22;101600;;;31.27643;11.49971
46174;BME280;31897;52.420;13.498;2023-07-08T10:50:30;101600;;;30.96171;11.59679
46174;BME280;31897;52.420;13.498;2023-07-08T10:53:40;101600;;;30.69741;11.53526
46174;BME280;31897;52.420;13.498;2023-07-08T10:56:47;101600;;;30.45798;11.57725
46174;BME280;31897;52.420;13.498;2023-07-08T10:59:52;101600;;;30.44021;11.78281
46174;BME280;31897;52.420;13.498;2023-07-08T11:03:04;101600;;;30.49255;11.8286
46174;BME280;31897;52.420;13.498;2023-07-08T11:06:12;101600;;;30.51194;11.7653
46174;BME280;31897;52.420;13.498;2023-07-08T11:09:16;101600;;;30.45927;11.83716
46174;BME280;31897;52.420;13.498;2023-07-08T11:12:21;101600;;;30.34942;11.82642
46174;BME280;31897;52.420;13.498;2023-07-08T11:15:26;101600;;;30.31807;11.75439
46174;BME280;31897;52.420;13.498;2023-07-08T11:18:30;101600;;;30.23794;11.70443
46174;BME280;31897;52.420;13.498;2023-07-08T11:21:37;101600;;;30.23762;11.89626
46174;BME280;31897;52.420;13.498;2023-07-08T11:24:40;101600;;;30.17784;12.00568
46174;BME280;31897;52.420;13.498;2023-07-08T11:27:43;101600;;;30.1255;12.02794
46174;BME280;31897;52.420;13.498;2023-07-08T11:30:47;101600;;;30.06346;11.90863
46174;BME280;31897;52.420;13.498;2023-07-08T11:33:50;101600;;;29.98624;11.74715
46174;BME280;31897;52.420;13.498;2023-07-08T11:36:52;101600;;;29.94424;11.9171
46174;BME280;31897;52.420;13.498;2023-07-08T11:39:54;101600;;;30.06023;12.04493
46174;BME280;31897;52.420;13.498;2023-07-08T11:42:59;101600;;;30.18786;11.8998
46174;BME280;31897;52.420;13.498;2023-07-08T11:46:03;101600;;;30.23697;12.05098
46174;BME280;31897;52.420;13.498;2023-07-08T11:49:05;101600;;;30.30289;11.86687
46174;BME280;31897;52.420;13.498;2023-07-08T11:52:08;101600;;;30.30063;11.60711
46174;BME280;31897;52.420;13.498;2023-07-08T11:55:20;101600;;;30.29837;11.60109
46174;BME280;31897;52.420;13.498;2023-07-08T11:58:22;101600;;;30.35943;11.58433
46174;BME280;31897;52.420;13.498;2023-07-08T12:01:31;101600;;;30.40435;11.54396
46174;BME280;31897;52.420;13.498;2023-07-08T12:04:33;101600;;;30.52487;11.60959
46174;BME280;31897;52.420;13.498;2023-07-08T12:07:37;101600;;;30.55395;11.55178
46174;BME280;31897;52.420;13.498;2023-07-08T12:10:39;101600;;;30.54878;11.55834
46174;BME280;31897;52.420;13.498;2023-07-08T12:13:40;101600;;;30.65411;11.57554
46174;BME280;31897;52.420;13.498;2023-07-08T12:16:41;101600;;;30.74135;11.43918
46174;BME280;31897;52.420;13.498;2023-07-08T12:19:42;101600;;;30.74264;11.30899
46174;BME280;31897;52.420;13.498;2023-07-08T12:22:44;101600;;;30.89612;11.37842
46174;BME280;31897;52.420;13.498;2023-07-08T12:25:45;101600;;;31.01309;11.28317
46174;BME280;31897;52.420;13.498;2023-07-08T12:28:46;101600;;;31.14686;11.31685
46174;BME280;31897;52.420;13.498;2023-07-08T12:31:47;101600;;;31.24896;10.98693
46174;BME280;31897;52.420;13.498;2023-07-08T12:34:49;101600;;;31.3068;10.77798
46174;BME280;31897;52.420;13.498;2023-07-08T12:37:50;101500;;;31.43314;10.7066
46174;BME280;31897;52.420;13.498;2023-07-08T12:40:52;101500;;;31.70068;10.76129
46174;BME280;31897;52.420;13.498;2023-07-08T12:43:52;101500;;;31.8897;10.48021
46174;BME280;31897;52.420;13.498;2023-07-08T12:46:54;101500;;;32.06095;10.46122
46174;BME280;31897;52.420;13.498;2023-07-08T12:49:55;101500;;;32.20054;10.28917
46174;BME280;31897;52.420;13.498;2023-07-08T12:52:56;101500;;;32.49813;10.39121
46174;BME280;31897;52.420;13.498;2023-07-08T12:55:57;101500;;;32.69879;10.36372
46174;BME280;31897;52.420;13.498;2023-07-08T12:58:59;101500;;;32.88619;10.36832
46174;BME280;31897;52.420;13.498;2023-07-08T13:02:00;101500;;;33.11884;10.22627
46174;BME280;31897;52.420;13.498;2023-07-08T13:05:01;101500;;;33.28008;10.13932
46174;BME280;31897;52.420;13.498;2023-07-08T13:08:02;101500;;;33.29203;9.65236
46174;BME280;31897;52.420;13.498;2023-07-08T13:11:04;101500;;;33.31595;9.58196
46174;BME280;31897;52.420;13.498;2023-07-08T13:14:06;101500;;;33.39931;9.50698
46174;BME280;31897;52.420;13.498;2023-07-08T13:17:07;101500;;;33.43873;9.65356
46174;BME280;31897;52.420;13.498;2023-07-08T13:20:09;101500;;;33.57089;9.59976
46174;BME280;31897;52.420;13.498;2023-07-08T13:23:14;101500;;;33.65135;9.52496
46174;BME280;31897;52.420;13.498;2023-07-08T13:26:15;101500;;;33.83197;9.68573
46174;BME280;31897;52.420;13.498;2023-07-08T13:29:17;101500;;;34.0504;9.61276
46174;BME280;31897;52.420;13.498;2023-07-08T13:32:19;101500;;;34.25074;9.59732
46174;BME280;31897;52.420;13.498;2023-07-08T13:35:21;101500;;;34.43492;9.4894
46174;BME280;31897;52.420;13.498;2023-07-08T13:38:27;101500;;;34.3606;9.1953
46174;BME280;31897;52.420;13.498;2023-07-08T13:41:32;101500;;;34.31989;9.26095
46174;BME280;31897;52.420;13.498;2023-07-08T13:44:33;101500;;;34.40552;9.29176
46174;BME280;31897;52.420;13.498;2023-07-08T13:47:34;101500;;;34.5758;9.44087
46174;BME280;31897;52.420;13.498;2023-07-08T13:50:38;101500;;;34.6372;9.18622
46174;BME280;31897;52.420;13.498;2023-07-08T13:53:43;101500;;;34.78939;9.24936
46174;BME280;31897;52.420;13.498;2023-07-08T13:56:44;101500;;;34.86339;9.32489
46174;BME280;31897;52.420;13.498;2023-07-08T13:59:45;101500;;;34.8873;9.2042
46174;BME280;31897;52.420;13.498;2023-07-08T14:02:47;101500;;;34.93092;8.85051
46174;BME280;31897;52.420;13.498;2023-07-08T14:05:47;101500;;;34.90862;8.73968
46174;BME280;31897;52.420;13.498;2023-07-08T14:08:48;101500;;;34.76548;8.8573
46174;BME280;31897;52.420;13.498;2023-07-08T14:11:50;101500;;;34.88019;8.99211
46174;BME280;31897;52.420;13.498;2023-07-08T14:14:51;101500;;;35.04434;9.13562
46174;BME280;31897;52.420;13.498;2023-07-08T14:17:52;101500;;;35.14257;9.12167
46174;BME280;31897;52.420;13.498;2023-07-08T14:20:53;101500;;;35.43791;9.05468
46174;BME280;31897;52.420;13.498;2023-07-08T14:23:54;101500;;;35.67315;8.94847
46174;BME280;31897;52.420;13.498;2023-07-08T14:26:55;101500;;;35.71418;8.73846
46174;BME280;31897;52.420;13.498;2023-07-08T14:29:55;101500;;;35.73616;8.39833
46174;BME280;31897;52.420;13.498;2023-07-08T14:32:57;101500;;;35.73099;8.34871
46174;BME280;31897;52.420;13.498;2023-07-08T14:35:57;101500;;;35.83083;8.57878
46174;BME280;31897;52.420;13.498;2023-07-08T14:38:58;101500;;;35.88221;8.53081
46174;BME280;31897;52.420;13.498;2023-07-08T14:41:59;101500;;;35.8444;8.64038
46174;BME280;31897;52.420;13.498;2023-07-08T14:45:00;101500;;;35.99563;8.65969
46174;BME280;31897;52.420;13.498;2023-07-08T14:48:00;101500;;;36.09903;8.57621
46174;BME280;31897;52.420;13.498;2023-07-08T14:51:01;101500;;;36.25058;8.4261
46174;BME280;31897;52.420;13.498;2023-07-08T14:54:02;101500;;;36.31908;8.46453
46174;BME280;31897;52.420;13.498;2023-07-08T14:57:03;101500;;;36.28483;8.58648
46174;BME280;31897;52.420;13.498;2023-07-08T15:00:09;101500;;;36.29194;8.57964
46174;BME280;31897;52.420;13.498;2023-07-08T15:03:10;101500;;;36.24735;8.54555
46174;BME280;31897;52.420;13.498;2023-07-08T15:06:11;101500;;;36.16657;8.39519
46174;BME280;31897;52.420;13.498;2023-07-08T15:09:12;101500;;;36.05282;8.09074